createdAt,value
2018-09-03T00:02:27.481Z,3.45
2018-09-03T00:04:54.497Z,2.90
2018-09-03T00:07:21.530Z,8.40
2018-09-03T00:09:48.547Z,4.35
2018-09-03T00:12:15.580Z,7.35
2018-09-03T00:14:42.597Z,2.83
2018-09-03T00:17:09.987Z,3.50
2018-09-03T00:19:37.225Z,3.52
2018-09-03T00:22:04.391Z,3.62
2018-09-03T00:24:31.419Z,2.10
2018-09-03T00:26:58.960Z,2.83
2018-09-03T00:29:26.375Z,4.05
2018-09-03T00:33:02.757Z,5.72
2018-09-03T00:35:35.289Z,3.50
2018-09-03T00:38:07.719Z,2.75
2018-09-03T00:40:40.338Z,3.75
2018-09-03T00:43:12.894Z,4.08
2018-09-03T00:45:45.374Z,8.80
2018-09-03T00:48:12.407Z,2.30
2018-09-03T00:50:39.441Z,3.60
2018-09-03T00:53:06.512Z,2.77
2018-09-03T00:55:33.536Z,4.62
2018-09-03T00:58:00.597Z,3.17
2018-09-03T01:00:27.628Z,3.40
2018-09-03T01:02:54.682Z,2.52
2018-09-03T01:05:21.708Z,2.77
2018-09-03T01:07:48.733Z,3.27
2018-09-03T01:10:15.764Z,5.60
2018-09-03T01:12:42.869Z,4.03
2018-09-03T01:15:09.896Z,3.40
2018-09-03T01:17:36.905Z,2.05
2018-09-03T01:20:03.902Z,4.30
2018-09-03T01:22:30.980Z,6.58
2018-09-03T01:24:58.426Z,2.70
2018-09-03T01:27:25.435Z,3.08
2018-09-03T01:29:52.467Z,3.60
2018-09-03T01:32:19.547Z,3.75
2018-09-03T01:34:46.576Z,5.53
2018-09-03T01:37:13.586Z,3.85
2018-09-03T01:39:40.606Z,4.15
2018-09-03T01:42:07.668Z,4.78
2018-09-03T01:44:34.679Z,2.37
2018-09-03T01:47:01.678Z,2.55
2018-09-03T01:49:28.696Z,2.40
2018-09-03T01:51:55.728Z,3.08
2018-09-03T01:54:22.801Z,2.35
2018-09-03T01:56:49.806Z,3.65
2018-09-03T01:59:16.832Z,7.20
2018-09-03T02:01:43.901Z,3.58
2018-09-03T02:04:10.911Z,3.08
2018-09-03T02:06:37.915Z,3.65
2018-09-03T02:09:07.522Z,3.27
2018-09-03T02:11:34.639Z,3.80
2018-09-03T02:14:01.655Z,3.75
2018-09-03T02:16:28.658Z,3.42
2018-09-03T02:18:55.692Z,3.70
2018-09-03T02:21:22.699Z,4.65
2018-09-03T02:23:49.713Z,3.95
2018-09-03T02:26:16.738Z,2.75
2018-09-03T02:28:43.760Z,3.75
2018-09-03T02:31:10.769Z,9.10
2018-09-03T02:33:37.871Z,3.10
2018-09-03T02:36:04.949Z,2.12
2018-09-03T02:38:31.965Z,2.95
2018-09-03T02:40:59.051Z,4.03
2018-09-03T02:43:26.137Z,2.72
2018-09-03T02:45:53.149Z,2.45
2018-09-03T02:48:20.198Z,2.50
2018-09-03T02:50:47.206Z,4.00
2018-09-03T02:53:14.328Z,2.45
2018-09-03T02:55:41.330Z,3.40
2018-09-03T02:58:08.346Z,2.72
2018-09-03T03:00:35.358Z,4.58
2018-09-03T03:03:02.422Z,1.85
2018-09-03T03:05:29.679Z,2.72
2018-09-03T03:07:57.002Z,3.08
2018-09-03T03:10:24.131Z,2.75
2018-09-03T03:12:51.211Z,5.15
2018-09-03T03:15:18.236Z,3.40
2018-09-03T03:17:45.291Z,2.65
2018-09-03T03:20:12.330Z,4.65
2018-09-03T03:22:39.392Z,5.05
2018-09-03T03:25:06.424Z,3.45
2018-09-03T03:27:33.487Z,2.70
2018-09-03T03:30:00.559Z,4.08
2018-09-03T03:32:27.677Z,4.67
2018-09-03T03:34:54.716Z,6.17
2018-09-03T03:37:21.725Z,3.95
2018-09-03T03:39:48.734Z,3.47
2018-09-03T03:42:15.749Z,4.78
2018-09-03T03:44:42.798Z,4.05
2018-09-03T03:47:09.864Z,3.40
2018-09-03T03:49:36.891Z,4.42
2018-09-03T03:52:03.963Z,5.85
2018-09-03T03:54:30.962Z,1.80
2018-09-03T03:56:58.533Z,9.48
2018-09-03T03:59:25.554Z,2.80
2018-09-03T04:01:52.635Z,2.62
2018-09-03T04:04:19.644Z,3.00
2018-09-03T04:06:46.652Z,4.45
2018-09-03T04:09:13.694Z,2.90
2018-09-03T04:11:41.227Z,3.83
2018-09-03T04:14:08.257Z,2.92
2018-09-03T04:16:35.290Z,1.82
2018-09-03T04:19:02.302Z,4.42
2018-09-03T04:21:29.428Z,2.70
2018-09-03T04:23:56.554Z,2.02
2018-09-03T04:26:23.588Z,3.85
2018-09-03T04:28:50.695Z,2.35
2018-09-03T04:31:17.632Z,5.50
2018-09-03T04:33:44.749Z,2.37
2018-09-03T04:36:11.787Z,3.33
2018-09-03T04:38:38.820Z,3.80
2018-09-03T04:41:05.833Z,2.85
2018-09-03T04:43:32.939Z,4.45
2018-09-03T04:46:00.009Z,12.60
2018-09-03T04:48:27.010Z,2.98
2018-09-03T04:50:54.172Z,2.67
2018-09-03T04:53:21.280Z,2.00
2018-09-03T04:55:48.285Z,10.60
2018-09-03T04:58:15.298Z,3.65
2018-09-03T05:00:42.328Z,2.95
2018-09-03T05:03:09.418Z,3.05
2018-09-03T05:05:36.440Z,4.87
2018-09-03T05:08:03.454Z,3.02
2018-09-03T05:10:30.484Z,3.37
2018-09-03T05:12:58.214Z,2.27
2018-09-03T05:15:25.229Z,3.45
2018-09-03T05:17:52.242Z,2.77
2018-09-03T05:20:19.244Z,2.45
2018-09-03T05:22:46.309Z,2.40
2018-09-03T05:25:13.327Z,3.58
2018-09-03T05:27:40.335Z,3.15
2018-09-03T05:30:07.655Z,4.10
2018-09-03T05:32:34.694Z,2.77
2018-09-03T05:35:01.724Z,3.83
2018-09-03T05:37:28.752Z,5.78
2018-09-03T05:39:55.766Z,6.35
2018-09-03T05:42:22.879Z,3.33
2018-09-03T05:44:49.956Z,4.65
2018-09-03T05:47:16.976Z,4.35
2018-09-03T05:49:44.049Z,2.67
2018-09-03T05:52:11.354Z,4.75
2018-09-03T05:54:38.889Z,2.90
2018-09-03T05:57:05.912Z,1.45
2018-09-03T05:59:32.960Z,1.60
2018-09-03T06:02:00.060Z,2.50
2018-09-03T06:04:27.089Z,2.20
2018-09-03T06:06:54.228Z,3.30
2018-09-03T06:09:21.245Z,3.58
2018-09-03T06:11:48.377Z,2.87
2018-09-03T06:14:15.466Z,6.92
2018-09-03T06:16:42.487Z,2.90
2018-09-03T06:19:09.500Z,2.70
2018-09-03T06:21:36.637Z,2.25
2018-09-03T06:24:03.715Z,6.40
2018-09-03T06:26:30.810Z,3.98
2018-09-03T06:28:58.137Z,1.75
2018-09-03T06:31:25.160Z,3.05
2018-09-03T06:33:52.206Z,1.55
2018-09-03T06:36:19.209Z,3.62
2018-09-03T06:38:46.234Z,3.65
2018-09-03T06:41:14.180Z,5.05
2018-09-03T06:43:41.273Z,3.85
2018-09-03T06:46:08.308Z,6.03
2018-09-03T06:48:35.335Z,2.67
2018-09-03T06:51:02.403Z,4.08
2018-09-03T06:53:29.467Z,4.42
2018-09-03T06:55:56.484Z,1.80
2018-09-03T06:58:23.504Z,2.47
2018-09-03T07:00:50.546Z,5.58
2018-09-03T07:03:17.619Z,2.20
2018-09-03T07:05:44.646Z,4.80
2018-09-03T07:08:11.674Z,2.67
2018-09-03T07:10:38.681Z,1.90
2018-09-03T07:13:06.842Z,1.80
2018-09-03T07:15:33.982Z,2.52
2018-09-03T07:18:01.315Z,3.37
2018-09-03T07:20:28.343Z,4.35
2018-09-03T07:22:55.453Z,2.92
2018-09-03T07:25:22.470Z,5.50
2018-09-03T07:27:49.506Z,1.70
2018-09-03T07:30:16.530Z,2.35
2018-09-03T07:32:43.606Z,3.47
2018-09-03T07:35:10.656Z,2.05
2018-09-03T07:37:37.668Z,9.53
2018-09-03T07:40:05.095Z,5.15
2018-09-03T07:42:32.132Z,3.15
2018-09-03T07:44:59.256Z,2.55
2018-09-03T07:47:26.323Z,2.05
2018-09-03T07:49:54.069Z,3.60
2018-09-03T07:52:21.132Z,5.97
2018-09-03T07:54:48.365Z,4.00
2018-09-03T07:57:15.489Z,3.75
2018-09-03T07:59:42.586Z,4.72
2018-09-03T08:02:09.968Z,3.30
2018-09-03T08:04:36.984Z,4.87
2018-09-03T08:07:04.044Z,3.45
2018-09-03T08:09:31.276Z,4.05
2018-09-03T08:11:58.485Z,2.90
2018-09-03T08:14:25.493Z,2.25
2018-09-03T08:16:52.607Z,4.35
2018-09-03T08:19:19.640Z,2.58
2018-09-03T08:21:46.733Z,2.37
2018-09-03T08:24:13.767Z,2.60
2018-09-03T08:26:40.857Z,1.60
2018-09-03T08:29:07.881Z,1.85
2018-09-03T08:31:35.085Z,2.02
2018-09-03T08:34:02.169Z,4.72
2018-09-03T08:36:29.509Z,2.70
2018-09-03T08:38:56.552Z,3.60
2018-09-03T08:41:23.573Z,2.30
2018-09-03T08:43:50.610Z,2.70
2018-09-03T08:46:18.140Z,3.05
2018-09-03T08:48:45.269Z,2.58
2018-09-03T08:51:12.274Z,2.65
2018-09-03T08:53:39.321Z,2.72
2018-09-03T08:56:06.447Z,3.40
2018-09-03T08:58:33.454Z,1.80
2018-09-03T09:01:00.461Z,3.05
2018-09-03T09:03:32.921Z,2.47
2018-09-03T09:06:00.021Z,2.33
2018-09-03T09:08:27.035Z,2.08
2018-09-03T09:10:54.052Z,5.35
2018-09-03T09:13:21.241Z,1.98
2018-09-03T09:15:48.787Z,2.58
2018-09-03T09:18:16.217Z,4.62
2018-09-03T09:20:43.275Z,4.10
2018-09-03T09:23:10.323Z,4.78
2018-09-03T09:25:37.428Z,5.85
2018-09-03T09:28:04.663Z,3.83
2018-09-03T09:30:31.682Z,3.05
2018-09-03T09:32:59.358Z,2.08
2018-09-03T09:35:26.366Z,5.97
2018-09-03T09:37:53.392Z,3.90
2018-09-03T09:40:20.430Z,5.40
2018-09-03T09:42:47.498Z,3.15
2018-09-03T09:45:14.831Z,1.80
2018-09-03T09:47:41.905Z,5.15
2018-09-03T09:50:08.933Z,3.52
2018-09-03T09:52:37.028Z,2.62
2018-09-03T09:55:04.177Z,5.00
2018-09-03T09:57:31.226Z,2.60
2018-09-03T09:59:58.477Z,4.85
2018-09-03T10:02:25.548Z,2.52
2018-09-03T10:04:52.792Z,2.33
2018-09-03T10:07:19.942Z,2.75
2018-09-03T10:09:46.986Z,2.30
2018-09-03T10:12:18.693Z,2.90
2018-09-03T10:14:45.730Z,2.47
2018-09-03T10:17:12.813Z,4.30
2018-09-03T10:19:39.854Z,2.90
2018-09-03T10:22:06.904Z,1.95
2018-09-03T10:24:33.938Z,5.92
2018-09-03T10:27:00.962Z,4.30
2018-09-03T10:29:28.017Z,3.35
2018-09-03T10:31:55.173Z,5.62
2018-09-03T10:34:22.152Z,7.78
2018-09-03T10:36:49.170Z,2.95
2018-09-03T10:39:16.202Z,2.45
2018-09-03T10:41:43.299Z,4.08
2018-09-03T10:44:10.329Z,2.87
2018-09-03T10:46:37.386Z,2.40
2018-09-03T10:49:04.396Z,2.62
2018-09-03T10:51:31.484Z,2.72
2018-09-03T10:53:59.040Z,2.08
2018-09-03T10:56:26.062Z,3.37
2018-09-03T10:58:53.098Z,4.70
2018-09-03T11:01:20.146Z,3.12
2018-09-03T11:03:47.248Z,7.83
2018-09-03T11:06:15.401Z,3.58
2018-09-03T11:08:42.467Z,3.52
2018-09-03T11:11:09.543Z,4.90
2018-09-03T11:13:36.614Z,2.83
2018-09-03T11:16:04.205Z,4.50
2018-09-03T11:18:32.036Z,1.90
2018-09-03T11:21:00.315Z,1.90
2018-09-03T11:23:27.398Z,2.60
2018-09-03T11:25:54.435Z,5.70
2018-09-03T11:28:21.497Z,4.33
2018-09-03T11:30:49.347Z,7.42
2018-09-03T11:33:16.412Z,2.50
2018-09-03T11:35:43.466Z,6.87
2018-09-03T11:38:10.545Z,2.05
2018-09-03T11:40:37.600Z,4.12
2018-09-03T11:43:04.679Z,2.55
2018-09-03T11:45:31.714Z,5.15
2018-09-03T11:47:58.793Z,4.87
2018-09-03T11:50:25.890Z,2.83
2018-09-03T11:52:53.060Z,2.85
2018-09-03T11:55:20.214Z,2.08
2018-09-03T11:57:47.270Z,5.60
2018-09-03T12:00:19.295Z,5.42
2018-09-03T12:02:46.368Z,4.62
2018-09-03T12:05:13.412Z,2.55
2018-09-03T12:07:40.469Z,2.20
2018-09-03T12:10:08.011Z,5.08
2018-09-03T12:12:35.113Z,3.42
2018-09-03T12:15:06.393Z,4.65
2018-09-03T12:17:33.465Z,2.72
2018-09-03T12:20:00.501Z,4.60
2018-09-03T12:22:27.745Z,2.60
2018-09-03T12:24:54.772Z,2.05
2018-09-03T12:27:21.778Z,5.22
2018-09-03T12:29:48.869Z,4.92
2018-09-03T12:32:15.961Z,2.25
2018-09-03T12:34:43.004Z,3.20
2018-09-03T12:37:10.065Z,3.15
2018-09-03T12:39:37.180Z,2.80
2018-09-03T12:42:04.342Z,5.67
2018-09-03T12:44:31.392Z,5.30
2018-09-03T12:46:58.439Z,5.70
2018-09-03T12:49:25.941Z,6.37
2018-09-03T12:51:53.054Z,11.12
2018-09-03T12:54:20.152Z,13.00
2018-09-03T12:56:47.202Z,8.50
2018-09-03T12:59:14.236Z,14.33
2018-09-03T13:01:41.320Z,12.03
2018-09-03T13:04:08.360Z,10.20
2018-09-03T13:06:35.794Z,7.12
2018-09-03T13:09:02.906Z,7.50
2018-09-03T13:11:30.006Z,11.95
2018-09-03T13:13:57.042Z,7.40
2018-09-03T13:16:24.150Z,11.28
2018-09-03T13:18:51.322Z,8.78
2018-09-03T13:21:18.290Z,10.30
2018-09-03T13:23:45.660Z,9.38
2018-09-03T13:26:12.779Z,10.82
2018-09-03T13:28:39.821Z,12.98
2018-09-03T13:31:06.869Z,11.18
2018-09-03T13:33:34.078Z,20.55
2018-09-03T13:36:01.169Z,15.03
2018-09-03T13:38:28.199Z,12.23
2018-09-03T13:40:55.234Z,10.03
2018-09-03T13:43:22.381Z,9.38
2018-09-03T13:45:49.418Z,9.03
2018-09-03T13:48:16.526Z,12.65
2018-09-03T13:50:43.594Z,10.28
2018-09-03T13:53:10.780Z,9.50
2018-09-03T13:55:37.842Z,10.32
2018-09-03T13:58:04.984Z,10.48
2018-09-03T14:00:32.112Z,14.70
2018-09-03T14:02:59.257Z,6.17
2018-09-03T14:05:26.348Z,15.53
2018-09-03T14:07:53.443Z,10.10
2018-09-03T14:10:20.621Z,13.30
2018-09-03T14:12:48.790Z,8.58
2018-09-03T14:15:16.630Z,15.95
2018-09-03T14:17:43.694Z,13.70
2018-09-03T14:20:10.813Z,13.72
2018-09-03T14:22:41.026Z,9.58
2018-09-03T14:25:08.640Z,13.32
2018-09-03T14:27:35.934Z,12.10
2018-09-03T14:30:03.072Z,13.98
2018-09-03T14:32:30.224Z,16.12
2018-09-03T14:34:57.747Z,9.95
2018-09-03T14:37:24.766Z,11.00
2018-09-03T14:39:51.845Z,11.75
2018-09-03T14:42:18.994Z,12.60
2018-09-03T14:44:46.064Z,10.63
2018-09-03T14:47:13.500Z,15.32
2018-09-03T14:49:40.681Z,8.18
2018-09-03T14:52:07.732Z,14.13
2018-09-03T14:54:34.799Z,14.07
2018-09-03T14:57:01.883Z,17.65
2018-09-03T14:59:28.986Z,13.10
2018-09-03T15:01:56.114Z,11.53
2018-09-03T15:04:23.181Z,18.80
2018-09-03T15:06:50.274Z,13.08
2018-09-03T15:09:17.371Z,9.83
2018-09-03T15:11:44.452Z,13.45
2018-09-03T15:14:11.503Z,10.55
2018-09-03T15:16:38.617Z,9.65
2018-09-03T15:19:06.014Z,12.85
2018-09-03T15:21:33.887Z,13.05
2018-09-03T15:24:01.085Z,15.85
2018-09-03T15:26:29.142Z,18.70
2018-09-03T15:28:56.244Z,16.42
2018-09-03T15:31:23.303Z,12.25
2018-09-03T15:33:51.872Z,16.25
2018-09-03T15:36:19.083Z,17.85
2018-09-03T15:38:46.764Z,15.98
2018-09-03T15:41:13.845Z,12.40
2018-09-03T15:43:41.028Z,14.63
2018-09-03T15:46:08.935Z,12.70
2018-09-03T15:48:36.024Z,17.92
2018-09-03T15:51:03.531Z,12.47
2018-09-03T15:53:30.594Z,12.10
2018-09-03T15:55:59.209Z,9.55
2018-09-03T15:58:27.316Z,18.45
2018-09-03T16:00:54.393Z,12.07
2018-09-03T16:03:21.600Z,9.38
2018-09-03T16:05:48.797Z,9.35
2018-09-03T16:08:15.882Z,14.40
2018-09-03T16:10:43.023Z,15.50
2018-09-03T16:13:10.406Z,13.50
2018-09-03T16:15:37.850Z,9.50
2018-09-03T16:18:05.055Z,8.58
2018-09-03T16:20:32.139Z,14.38
2018-09-03T16:23:00.142Z,14.20
2018-09-03T16:25:27.490Z,16.17
2018-09-03T16:27:54.815Z,10.48
2018-09-03T16:30:21.947Z,10.53
2018-09-03T16:32:49.143Z,9.98
2018-09-03T16:35:16.180Z,10.75
2018-09-03T16:37:43.254Z,11.95
2018-09-03T16:40:11.345Z,13.08
2018-09-03T16:42:38.589Z,11.60
2018-09-03T16:45:06.050Z,11.95
2018-09-03T16:47:33.276Z,16.50
2018-09-03T16:50:00.908Z,11.60
2018-09-03T16:52:31.992Z,15.43
2018-09-03T16:55:00.135Z,13.60
2018-09-03T16:57:27.211Z,14.75
2018-09-03T16:59:54.554Z,21.77
2018-09-03T17:02:21.849Z,11.97
2018-09-03T17:04:49.386Z,25.75
2018-09-03T17:07:16.633Z,18.25
2018-09-03T17:09:44.023Z,12.75
2018-09-03T17:12:11.202Z,10.03
2018-09-03T17:14:38.283Z,14.30
2018-09-03T17:17:05.617Z,11.57
2018-09-03T17:19:32.715Z,14.15
2018-09-03T17:21:59.916Z,9.80
2018-09-03T17:24:27.064Z,13.75
2018-09-03T17:26:54.162Z,9.18
2018-09-03T17:29:21.271Z,8.45
2018-09-03T17:31:48.366Z,10.20
2018-09-03T17:34:15.456Z,10.05
2018-09-03T17:36:42.590Z,10.45
2018-09-03T17:39:10.192Z,11.80
2018-09-03T17:41:37.417Z,9.95
2018-09-03T17:44:04.484Z,7.78
2018-09-03T17:46:31.689Z,8.45
2018-09-03T17:48:58.788Z,9.13
2018-09-03T17:51:27.261Z,9.95
2018-09-03T17:53:54.380Z,6.95
2018-09-03T17:56:21.448Z,8.70
2018-09-03T17:58:48.617Z,7.65
2018-09-03T18:01:16.841Z,15.43
2018-09-03T18:03:43.962Z,10.30
2018-09-03T18:06:11.034Z,10.47
2018-09-03T18:08:38.153Z,8.88
2018-09-03T18:11:05.243Z,8.75
2018-09-03T18:13:32.485Z,10.23
2018-09-03T18:15:59.781Z,8.50
2018-09-03T18:18:27.121Z,7.95
2018-09-03T18:20:54.498Z,10.00
2018-09-03T18:23:21.695Z,6.00
2018-09-03T18:25:48.875Z,6.85
2018-09-03T18:28:15.927Z,5.72
2018-09-03T18:30:43.044Z,7.03
2018-09-03T18:33:10.524Z,10.20
2018-09-03T18:35:37.680Z,10.18
2018-09-03T18:38:05.744Z,14.68
2018-09-03T18:40:33.001Z,5.30
2018-09-03T18:43:00.217Z,5.80
2018-09-03T18:45:27.431Z,6.42
2018-09-03T18:47:54.597Z,10.15
2018-09-03T18:50:23.248Z,8.45
2018-09-03T18:52:50.691Z,7.75
2018-09-03T18:55:18.171Z,15.55
2018-09-03T18:57:45.454Z,14.70
2018-09-03T19:00:13.163Z,7.03
2018-09-03T19:02:40.249Z,6.83
2018-09-03T19:05:07.826Z,13.15
2018-09-03T19:07:34.932Z,9.60
2018-09-03T19:10:02.036Z,8.83
2018-09-03T19:12:29.246Z,5.95
2018-09-03T19:14:56.556Z,9.58
2018-09-03T19:17:23.857Z,6.20
2018-09-03T19:19:51.298Z,12.65
2018-09-03T19:22:18.466Z,5.78
2018-09-03T19:24:45.564Z,7.78
2018-09-03T19:27:12.833Z,6.40
2018-09-03T19:29:40.487Z,19.05
2018-09-03T19:32:07.757Z,6.22
2018-09-03T19:34:35.635Z,4.25
2018-09-03T19:37:05.888Z,7.00
2018-09-03T19:39:33.386Z,7.35
2018-09-03T19:42:19.227Z,7.87
2018-09-03T19:45:43.153Z,6.40
2018-09-03T19:48:11.788Z,6.42
2018-09-03T19:50:38.922Z,8.55
2018-09-03T19:53:06.342Z,7.25
2018-09-03T19:55:33.366Z,11.12
2018-09-03T19:58:01.414Z,12.47
2018-09-03T20:00:29.366Z,12.40
2018-09-03T20:02:56.655Z,7.75
2018-09-03T20:05:25.471Z,8.95
2018-09-03T20:07:52.646Z,5.83
2018-09-03T20:10:19.793Z,9.93
2018-09-03T20:12:46.876Z,9.40
2018-09-03T20:15:18.264Z,6.75
2018-09-03T20:17:45.396Z,8.05
2018-09-03T20:20:13.030Z,7.58
2018-09-03T20:22:40.253Z,6.65
2018-09-03T20:25:07.303Z,10.53
2018-09-03T20:27:34.391Z,4.67
2018-09-03T20:30:02.008Z,6.92
2018-09-03T20:32:29.086Z,6.40
2018-09-03T20:34:56.136Z,13.93
2018-09-03T20:37:23.286Z,10.93
2018-09-03T20:39:50.399Z,10.50
2018-09-03T20:42:17.626Z,9.20
2018-09-03T20:44:44.841Z,9.05
2018-09-03T20:47:11.847Z,5.20
2018-09-03T20:49:39.295Z,10.90
2018-09-03T20:52:07.340Z,6.72
2018-09-03T20:54:39.670Z,10.78
2018-09-03T20:57:07.990Z,11.08
2018-09-03T20:59:38.234Z,10.20
2018-09-03T21:02:05.442Z,15.05
2018-09-03T21:04:35.922Z,6.78
2018-09-03T21:07:05.448Z,8.93
2018-09-03T21:09:33.289Z,5.80
2018-09-03T21:12:03.720Z,9.75
2018-09-03T21:14:35.472Z,6.85
2018-09-03T21:17:03.249Z,6.83
2018-09-03T21:19:30.329Z,4.62
2018-09-03T21:21:57.531Z,5.92
2018-09-03T21:24:24.614Z,7.70
2018-09-03T21:26:52.716Z,6.92
2018-09-03T21:29:22.600Z,3.65
2018-09-03T21:34:58.637Z,10.88
2018-09-03T21:37:26.117Z,5.92
2018-09-03T21:39:53.208Z,7.40
2018-09-03T21:42:21.361Z,11.38
2018-09-03T21:44:50.226Z,8.35
2018-09-03T21:47:17.360Z,6.30
2018-09-03T21:49:44.765Z,5.03
2018-09-03T21:52:11.894Z,7.83
2018-09-03T21:54:38.958Z,8.58
2018-09-03T21:57:06.030Z,5.60
2018-09-03T21:59:33.054Z,6.95
2018-09-03T22:02:00.168Z,10.93
2018-09-03T22:04:27.247Z,14.47
2018-09-03T22:06:54.338Z,7.70
2018-09-03T22:09:21.374Z,6.70
2018-09-03T22:11:56.478Z,8.20
2018-09-03T22:14:57.436Z,8.00
2018-09-03T22:17:41.399Z,7.67
2018-09-03T22:20:23.096Z,8.13
2018-09-03T22:22:50.538Z,8.43
2018-09-03T22:25:17.623Z,10.80
2018-09-03T22:27:44.721Z,8.18
2018-09-03T22:30:11.845Z,5.58
2018-09-03T22:32:38.929Z,7.03
2018-09-03T22:35:05.993Z,6.85
2018-09-03T22:37:33.044Z,7.12
2018-09-03T22:40:00.059Z,8.35
2018-09-03T22:42:27.498Z,4.67
2018-09-03T22:44:54.998Z,12.58
2018-09-03T22:47:22.069Z,5.37
2018-09-03T22:49:49.141Z,12.50
2018-09-03T22:52:16.254Z,7.35
2018-09-03T22:54:43.285Z,5.45
2018-09-03T22:57:10.425Z,7.53
2018-09-03T22:59:37.488Z,11.12
2018-09-03T23:02:04.631Z,4.87
2018-09-03T23:04:31.682Z,7.03
2018-09-03T23:06:59.546Z,5.03
2018-09-03T23:09:27.419Z,7.33
2018-09-03T23:11:54.567Z,7.90
2018-09-03T23:14:21.623Z,5.60
2018-09-03T23:16:48.716Z,15.88
2018-09-03T23:19:15.823Z,10.88
2018-09-03T23:21:42.973Z,12.15
2018-09-03T23:24:10.027Z,7.85
2018-09-03T23:26:37.055Z,8.05
2018-09-03T23:29:04.092Z,5.25
2018-09-03T23:31:31.149Z,5.58
2018-09-03T23:33:58.828Z,5.20
2018-09-03T23:36:25.961Z,7.85
2018-09-03T23:38:53.022Z,5.45
2018-09-03T23:41:20.055Z,6.22
2018-09-03T23:43:47.163Z,7.72
2018-09-03T23:46:14.230Z,4.80
2018-09-03T23:48:41.315Z,4.85
2018-09-03T23:51:08.379Z,4.95
2018-09-03T23:53:35.476Z,13.25
2018-09-03T23:56:02.575Z,6.92
2018-09-03T23:58:29.635Z,7.55
